sensor_id;sensor_type;location;lat;lon;timestamp;P1;durP1;ratioP1;P2;durP2;ratioP2
12359;SDS011;6244;51.460;7.090;2023-10-09T00:01:54;6.65;;;4.00;;
12359;SDS011;6244;51.460;7.090;2023-10-09T00:06:50;8.52;;;4.18;;
12359;SDS011;6244;51.460;7.090;2023-10-09T00:11:53;8.00;;;3.93;;
12359;SDS011;6244;51.460;7.090;2023-10-09T00:16:52;11.13;;;4.97;;
12359;SDS011;6244;51.460;7.090;2023-10-09T00:22:00;6.60;;;4.97;;
12359;SDS011;6244;51.460;7.090;2023-10-09T00:27:06;8.23;;;3.97;;
12359;SDS011;6244;51.460;7.090;2023-10-09T00:32:07;8.77;;;4.27;;
12359;SDS011;6244;51.460;7.090;2023-10-09T00:37:10;10.77;;;4.72;;
12359;SDS011;6244;51.460;7.090;2023-10-09T00:42:12;8.23;;;5.00;;
12359;SDS011;6244;51.460;7.090;2023-10-09T00:47:10;9.13;;;4.97;;
12359;SDS011;6244;51.460;7.090;2023-10-09T00:52:17;7.03;;;4.80;;
12359;SDS011;6244;51.460;7.090;2023-10-09T00:57:23;11.77;;;4.45;;
12359;SDS011;6244;51.460;7.090;2023-10-09T01:02:20;10.80;;;4.25;;
12359;SDS011;6244;51.460;7.090;2023-10-09T01:07:30;9.40;;;4.65;;
12359;SDS011;6244;51.460;7.090;2023-10-09T01:12:28;7.03;;;3.85;;
12359;SDS011;6244;51.460;7.090;2023-10-09T01:17:24;5.22;;;3.30;;
12359;SDS011;6244;51.460;7.090;2023-10-09T01:22:30;6.80;;;4.10;;
12359;SDS011;6244;51.460;7.090;2023-10-09T01:27:28;8.35;;;4.53;;
12359;SDS011;6244;51.460;7.090;2023-10-09T01:32:27;7.35;;;3.97;;
12359;SDS011;6244;51.460;7.090;2023-10-09T01:37:24;7.55;;;3.85;;
12359;SDS011;6244;51.460;7.090;2023-10-09T01:42:24;6.00;;;3.72;;
12359;SDS011;6244;51.460;7.090;2023-10-09T01:47:30;6.53;;;3.60;;
12359;SDS011;6244;51.460;7.090;2023-10-09T01:52:26;8.98;;;3.60;;
12359;SDS011;6244;51.460;7.090;2023-10-09T01:57:25;6.35;;;3.47;;
12359;SDS011;6244;51.460;7.090;2023-10-09T02:02:25;7.18;;;3.63;;
12359;SDS011;6244;51.460;7.090;2023-10-09T02:07:23;5.50;;;3.13;;
12359;SDS011;6244;51.460;7.090;2023-10-09T02:12:22;6.50;;;4.05;;
12359;SDS011;6244;51.460;7.090;2023-10-09T02:17:19;5.55;;;3.45;;
12359;SDS011;6244;51.460;7.090;2023-10-09T02:22:19;8.13;;;3.58;;
12359;SDS011;6244;51.460;7.090;2023-10-09T02:27:22;6.32;;;3.90;;
12359;SDS011;6244;51.460;7.090;2023-10-09T02:32:47;9.15;;;4.20;;
12359;SDS011;6244;51.460;7.090;2023-10-09T02:37:48;6.35;;;3.70;;
12359;SDS011;6244;51.460;7.090;2023-10-09T02:42:46;8.75;;;3.95;;
12359;SDS011;6244;51.460;7.090;2023-10-09T02:47:44;7.47;;;4.43;;
12359;SDS011;6244;51.460;7.090;2023-10-09T02:52:43;7.43;;;3.72;;
12359;SDS011;6244;51.460;7.090;2023-10-09T02:57:42;6.78;;;3.45;;
12359;SDS011;6244;51.460;7.090;2023-10-09T03:02:41;5.82;;;3.03;;
12359;SDS011;6244;51.460;7.090;2023-10-09T03:07:38;7.47;;;4.10;;
12359;SDS011;6244;51.460;7.090;2023-10-09T03:12:35;7.50;;;3.35;;
12359;SDS011;6244;51.460;7.090;2023-10-09T03:17:34;8.48;;;3.67;;
12359;SDS011;6244;51.460;7.090;2023-10-09T03:22:32;7.25;;;3.55;;
12359;SDS011;6244;51.460;7.090;2023-10-09T03:27:30;7.97;;;4.03;;
12359;SDS011;6244;51.460;7.090;2023-10-09T03:32:27;5.93;;;3.72;;
12359;SDS011;6244;51.460;7.090;2023-10-09T03:37:23;7.35;;;4.05;;
12359;SDS011;6244;51.460;7.090;2023-10-09T03:42:30;6.47;;;3.58;;
12359;SDS011;6244;51.460;7.090;2023-10-09T03:47:28;7.68;;;3.63;;
12359;SDS011;6244;51.460;7.090;2023-10-09T03:52:25;8.45;;;3.72;;
12359;SDS011;6244;51.460;7.090;2023-10-09T03:57:22;6.57;;;3.60;;
12359;SDS011;6244;51.460;7.090;2023-10-09T04:02:21;5.93;;;3.35;;
12359;SDS011;6244;51.460;7.090;2023-10-09T04:07:18;7.93;;;3.25;;
12359;SDS011;6244;51.460;7.090;2023-10-09T04:12:14;6.43;;;3.97;;
12359;SDS011;6244;51.460;7.090;2023-10-09T04:17:21;6.18;;;3.20;;
12359;SDS011;6244;51.460;7.090;2023-10-09T04:22:29;6.22;;;3.58;;
12359;SDS011;6244;51.460;7.090;2023-10-09T04:27:33;6.85;;;2.60;;
12359;SDS011;6244;51.460;7.090;2023-10-09T04:32:34;6.30;;;3.83;;
12359;SDS011;6244;51.460;7.090;2023-10-09T04:37:30;8.30;;;4.13;;
12359;SDS011;6244;51.460;7.090;2023-10-09T04:42:33;8.38;;;3.13;;
12359;SDS011;6244;51.460;7.090;2023-10-09T04:47:34;7.53;;;4.05;;
12359;SDS011;6244;51.460;7.090;2023-10-09T04:52:44;5.28;;;3.00;;
12359;SDS011;6244;51.460;7.090;2023-10-09T04:57:50;7.10;;;3.00;;
12359;SDS011;6244;51.460;7.090;2023-10-09T05:03:09;8.43;;;3.53;;
12359;SDS011;6244;51.460;7.090;2023-10-09T05:08:07;7.07;;;3.63;;
12359;SDS011;6244;51.460;7.090;2023-10-09T05:13:14;5.32;;;2.92;;
12359;SDS011;6244;51.460;7.090;2023-10-09T05:18:23;8.25;;;3.97;;
12359;SDS011;6244;51.460;7.090;2023-10-09T05:23:22;6.15;;;3.67;;
12359;SDS011;6244;51.460;7.090;2023-10-09T05:28:21;5.35;;;3.08;;
12359;SDS011;6244;51.460;7.090;2023-10-09T05:33:27;5.93;;;3.38;;
12359;SDS011;6244;51.460;7.090;2023-10-09T05:38:24;7.03;;;3.83;;
12359;SDS011;6244;51.460;7.090;2023-10-09T05:43:20;7.63;;;3.50;;
12359;SDS011;6244;51.460;7.090;2023-10-09T05:48:36;7.10;;;3.22;;
12359;SDS011;6244;51.460;7.090;2023-10-09T05:53:49;6.20;;;3.45;;
12359;SDS011;6244;51.460;7.090;2023-10-09T05:58:59;5.28;;;3.35;;
12359;SDS011;6244;51.460;7.090;2023-10-09T06:04:11;8.82;;;3.70;;
12359;SDS011;6244;51.460;7.090;2023-10-09T06:09:13;7.95;;;3.90;;
12359;SDS011;6244;51.460;7.090;2023-10-09T06:14:44;7.07;;;3.88;;
12359;SDS011;6244;51.460;7.090;2023-10-09T06:20:01;5.22;;;3.33;;
12359;SDS011;6244;51.460;7.090;2023-10-09T06:25:18;8.30;;;3.47;;
12359;SDS011;6244;51.460;7.090;2023-10-09T06:30:21;6.68;;;3.45;;
12359;SDS011;6244;51.460;7.090;2023-10-09T06:35:23;6.88;;;3.88;;
12359;SDS011;6244;51.460;7.090;2023-10-09T06:40:26;5.25;;;3.40;;
12359;SDS011;6244;51.460;7.090;2023-10-09T06:45:40;5.55;;;3.50;;
12359;SDS011;6244;51.460;7.090;2023-10-09T06:50:41;9.18;;;4.15;;
12359;SDS011;6244;51.460;7.090;2023-10-09T06:55:54;7.20;;;3.85;;
12359;SDS011;6244;51.460;7.090;2023-10-09T07:01:00;5.30;;;3.45;;
12359;SDS011;6244;51.460;7.090;2023-10-09T07:06:21;7.60;;;3.67;;
12359;SDS011;6244;51.460;7.090;2023-10-09T07:11:41;10.02;;;3.88;;
12359;SDS011;6244;51.460;7.090;2023-10-09T07:16:54;6.40;;;3.80;;
12359;SDS011;6244;51.460;7.090;2023-10-09T07:21:54;9.27;;;4.63;;
12359;SDS011;6244;51.460;7.090;2023-10-09T07:26:57;8.43;;;3.97;;
12359;SDS011;6244;51.460;7.090;2023-10-09T07:32:01;7.55;;;4.35;;
12359;SDS011;6244;51.460;7.090;2023-10-09T07:37:08;9.20;;;4.43;;
12359;SDS011;6244;51.460;7.090;2023-10-09T07:42:05;8.23;;;4.20;;
12359;SDS011;6244;51.460;7.090;2023-10-09T07:47:21;8.30;;;4.53;;
12359;SDS011;6244;51.460;7.090;2023-10-09T07:52:42;10.48;;;4.43;;
12359;SDS011;6244;51.460;7.090;2023-10-09T07:57:40;7.28;;;4.00;;
12359;SDS011;6244;51.460;7.090;2023-10-09T08:02:37;10.35;;;4.15;;
12359;SDS011;6244;51.460;7.090;2023-10-09T08:07:34;7.20;;;4.25;;
12359;SDS011;6244;51.460;7.090;2023-10-09T08:12:31;6.10;;;3.85;;
12359;SDS011;6244;51.460;7.090;2023-10-09T08:17:51;7.88;;;3.90;;
12359;SDS011;6244;51.460;7.090;2023-10-09T08:22:51;7.28;;;4.65;;
12359;SDS011;6244;51.460;7.090;2023-10-09T08:27:52;7.65;;;4.35;;
12359;SDS011;6244;51.460;7.090;2023-10-09T08:32:52;8.63;;;3.88;;
12359;SDS011;6244;51.460;7.090;2023-10-09T08:37:57;12.50;;;5.07;;
12359;SDS011;6244;51.460;7.090;2023-10-09T08:43:02;9.00;;;4.18;;
12359;SDS011;6244;51.460;7.090;2023-10-09T08:48:05;8.63;;;4.75;;
12359;SDS011;6244;51.460;7.090;2023-10-09T08:53:03;6.82;;;4.18;;
12359;SDS011;6244;51.460;7.090;2023-10-09T08:58:01;8.00;;;4.30;;
12359;SDS011;6244;51.460;7.090;2023-10-09T09:03:00;7.32;;;4.35;;
12359;SDS011;6244;51.460;7.090;2023-10-09T09:08:01;7.03;;;4.35;;
12359;SDS011;6244;51.460;7.090;2023-10-09T09:13:25;8.88;;;4.35;;
12359;SDS011;6244;51.460;7.090;2023-10-09T09:18:26;9.38;;;4.35;;
12359;SDS011;6244;51.460;7.090;2023-10-09T09:23:31;6.25;;;3.50;;
12359;SDS011;6244;51.460;7.090;2023-10-09T09:28:29;8.93;;;3.78;;
12359;SDS011;6244;51.460;7.090;2023-10-09T09:33:35;7.43;;;4.47;;
12359;SDS011;6244;51.460;7.090;2023-10-09T09:38:36;8.52;;;4.45;;
12359;SDS011;6244;51.460;7.090;2023-10-09T09:43:44;9.05;;;4.15;;
12359;SDS011;6244;51.460;7.090;2023-10-09T09:48:41;6.80;;;4.00;;
12359;SDS011;6244;51.460;7.090;2023-10-09T09:53:42;9.02;;;4.78;;
12359;SDS011;6244;51.460;7.090;2023-10-09T09:58:43;6.60;;;3.75;;
12359;SDS011;6244;51.460;7.090;2023-10-09T10:03:49;7.03;;;4.20;;
12359;SDS011;6244;51.460;7.090;2023-10-09T10:08:51;7.13;;;4.40;;
12359;SDS011;6244;51.460;7.090;2023-10-09T10:13:55;7.35;;;3.72;;
12359;SDS011;6244;51.460;7.090;2023-10-09T10:18:55;6.97;;;4.20;;
12359;SDS011;6244;51.460;7.090;2023-10-09T10:24:02;9.20;;;3.83;;
12359;SDS011;6244;51.460;7.090;2023-10-09T10:29:15;7.22;;;4.00;;
12359;SDS011;6244;51.460;7.090;2023-10-09T10:34:18;6.70;;;4.10;;
12359;SDS011;6244;51.460;7.090;2023-10-09T10:39:18;7.65;;;3.50;;
12359;SDS011;6244;51.460;7.090;2023-10-09T10:44:36;7.43;;;4.10;;
12359;SDS011;6244;51.460;7.090;2023-10-09T10:49:33;7.50;;;4.57;;
12359;SDS011;6244;51.460;7.090;2023-10-09T10:54:32;8.00;;;4.47;;
12359;SDS011;6244;51.460;7.090;2023-10-09T10:59:43;7.32;;;4.53;;
12359;SDS011;6244;51.460;7.090;2023-10-09T11:04:40;7.55;;;4.53;;
12359;SDS011;6244;51.460;7.090;2023-10-09T11:09:42;7.90;;;4.43;;
12359;SDS011;6244;51.460;7.090;2023-10-09T11:14:54;9.45;;;3.92;;
12359;SDS011;6244;51.460;7.090;2023-10-09T11:20:03;7.35;;;3.85;;
12359;SDS011;6244;51.460;7.090;2023-10-09T11:25:18;7.15;;;4.13;;
12359;SDS011;6244;51.460;7.090;2023-10-09T11:30:17;6.68;;;4.55;;
12359;SDS011;6244;51.460;7.090;2023-10-09T11:35:24;6.30;;;3.90;;
12359;SDS011;6244;51.460;7.090;2023-10-09T11:40:27;6.90;;;2.80;;
12359;SDS011;6244;51.460;7.090;2023-10-09T11:45:39;8.60;;;4.57;;
12359;SDS011;6244;51.460;7.090;2023-10-09T11:50:51;7.20;;;4.22;;
12359;SDS011;6244;51.460;7.090;2023-10-09T11:55:51;6.95;;;4.28;;
12359;SDS011;6244;51.460;7.090;2023-10-09T12:00:50;6.18;;;4.05;;
12359;SDS011;6244;51.460;7.090;2023-10-09T12:05:51;7.85;;;4.78;;
12359;SDS011;6244;51.460;7.090;2023-10-09T12:10:48;10.65;;;4.38;;
12359;SDS011;6244;51.460;7.090;2023-10-09T12:15:45;8.85;;;4.80;;
12359;SDS011;6244;51.460;7.090;2023-10-09T12:20:43;8.43;;;4.20;;
12359;SDS011;6244;51.460;7.090;2023-10-09T12:25:45;9.25;;;4.25;;
12359;SDS011;6244;51.460;7.090;2023-10-09T12:30:44;7.07;;;4.18;;
12359;SDS011;6244;51.460;7.090;2023-10-09T12:35:46;10.32;;;4.53;;
12359;SDS011;6244;51.460;7.090;2023-10-09T12:40:43;8.35;;;4.28;;
12359;SDS011;6244;51.460;7.090;2023-10-09T12:45:45;11.85;;;4.78;;
12359;SDS011;6244;51.460;7.090;2023-10-09T12:50:42;5.85;;;3.83;;
12359;SDS011;6244;51.460;7.090;2023-10-09T12:55:40;7.55;;;4.00;;
12359;SDS011;6244;51.460;7.090;2023-10-09T13:00:37;8.13;;;4.30;;
12359;SDS011;6244;51.460;7.090;2023-10-09T13:05:34;7.40;;;4.55;;
12359;SDS011;6244;51.460;7.090;2023-10-09T13:10:32;7.13;;;4.32;;
12359;SDS011;6244;51.460;7.090;2023-10-09T13:15:30;9.52;;;4.38;;
12359;SDS011;6244;51.460;7.090;2023-10-09T13:20:37;8.23;;;4.43;;
12359;SDS011;6244;51.460;7.090;2023-10-09T13:25:34;8.52;;;4.82;;
12359;SDS011;6244;51.460;7.090;2023-10-09T13:30:38;9.82;;;4.60;;
12359;SDS011;6244;51.460;7.090;2023-10-09T13:35:44;9.13;;;5.72;;
12359;SDS011;6244;51.460;7.090;2023-10-09T13:40:45;10.03;;;5.33;;
12359;SDS011;6244;51.460;7.090;2023-10-09T13:45:45;8.45;;;4.97;;
12359;SDS011;6244;51.460;7.090;2023-10-09T13:50:45;9.73;;;4.70;;
12359;SDS011;6244;51.460;7.090;2023-10-09T13:55:42;8.68;;;5.40;;
12359;SDS011;6244;51.460;7.090;2023-10-09T14:00:39;9.35;;;5.18;;
12359;SDS011;6244;51.460;7.090;2023-10-09T14:05:40;6.70;;;4.57;;
12359;SDS011;6244;51.460;7.090;2023-10-09T14:10:46;7.35;;;4.60;;
12359;SDS011;6244;51.460;7.090;2023-10-09T14:15:43;8.65;;;4.65;;
12359;SDS011;6244;51.460;7.090;2023-10-09T14:20:42;9.52;;;5.43;;
12359;SDS011;6244;51.460;7.090;2023-10-09T14:25:39;9.32;;;5.55;;
12359;SDS011;6244;51.460;7.090;2023-10-09T14:30:35;10.18;;;5.43;;
12359;SDS011;6244;51.460;7.090;2023-10-09T14:35:38;10.20;;;5.70;;
12359;SDS011;6244;51.460;7.090;2023-10-09T14:40:36;8.43;;;5.55;;
12359;SDS011;6244;51.460;7.090;2023-10-09T14:45:36;12.15;;;5.63;;
12359;SDS011;6244;51.460;7.090;2023-10-09T14:50:33;11.27;;;6.28;;
12359;SDS011;6244;51.460;7.090;2023-10-09T14:55:33;11.13;;;5.78;;
12359;SDS011;6244;51.460;7.090;2023-10-09T15:00:34;7.97;;;5.13;;
12359;SDS011;6244;51.460;7.090;2023-10-09T15:05:33;12.90;;;5.45;;
12359;SDS011;6244;51.460;7.090;2023-10-09T15:10:30;7.75;;;5.05;;
12359;SDS011;6244;51.460;7.090;2023-10-09T15:15:27;8.10;;;5.70;;
12359;SDS011;6244;51.460;7.090;2023-10-09T15:20:27;9.18;;;5.85;;
12359;SDS011;6244;51.460;7.090;2023-10-09T15:25:24;7.20;;;4.88;;
12359;SDS011;6244;51.460;7.090;2023-10-09T15:30:20;9.02;;;5.38;;
12359;SDS011;6244;51.460;7.090;2023-10-09T15:35:17;12.93;;;5.65;;
12359;SDS011;6244;51.460;7.090;2023-10-09T15:40:15;8.13;;;6.03;;
12359;SDS011;6244;51.460;7.090;2023-10-09T15:45:13;10.98;;;5.22;;
12359;SDS011;6244;51.460;7.090;2023-10-09T15:50:10;10.15;;;6.30;;
12359;SDS011;6244;51.460;7.090;2023-10-09T15:55:09;7.97;;;4.70;;
12359;SDS011;6244;51.460;7.090;2023-10-09T16:00:10;9.43;;;5.82;;
12359;SDS011;6244;51.460;7.090;2023-10-09T16:05:12;8.38;;;5.35;;
12359;SDS011;6244;51.460;7.090;2023-10-09T16:10:11;8.45;;;5.13;;
12359;SDS011;6244;51.460;7.090;2023-10-09T16:15:08;7.93;;;4.85;;
12359;SDS011;6244;51.460;7.090;2023-10-09T16:20:07;9.73;;;6.05;;
12359;SDS011;6244;51.460;7.090;2023-10-09T16:25:09;12.55;;;5.72;;
12359;SDS011;6244;51.460;7.090;2023-10-09T16:30:06;8.90;;;5.57;;
12359;SDS011;6244;51.460;7.090;2023-10-09T16:35:09;9.07;;;5.88;;
12359;SDS011;6244;51.460;7.090;2023-10-09T16:40:06;9.20;;;5.55;;
12359;SDS011;6244;51.460;7.090;2023-10-09T16:45:06;7.80;;;5.20;;
12359;SDS011;6244;51.460;7.090;2023-10-09T16:50:08;10.80;;;6.60;;
12359;SDS011;6244;51.460;7.090;2023-10-09T16:55:07;11.77;;;7.07;;
12359;SDS011;6244;51.460;7.090;2023-10-09T17:00:05;10.77;;;5.60;;
12359;SDS011;6244;51.460;7.090;2023-10-09T17:05:09;10.75;;;6.30;;
12359;SDS011;6244;51.460;7.090;2023-10-09T17:10:07;9.20;;;5.60;;
12359;SDS011;6244;51.460;7.090;2023-10-09T17:15:10;9.00;;;5.90;;
12359;SDS011;6244;51.460;7.090;2023-10-09T17:20:11;11.32;;;6.28;;
12359;SDS011;6244;51.460;7.090;2023-10-09T17:25:08;11.35;;;5.95;;
12359;SDS011;6244;51.460;7.090;2023-10-09T17:30:07;10.00;;;6.10;;
12359;SDS011;6244;51.460;7.090;2023-10-09T17:35:05;9.63;;;6.05;;
12359;SDS011;6244;51.460;7.090;2023-10-09T17:40:07;12.30;;;6.75;;
12359;SDS011;6244;51.460;7.090;2023-10-09T17:45:05;10.48;;;6.43;;
12359;SDS011;6244;51.460;7.090;2023-10-09T17:50:02;9.40;;;6.03;;
12359;SDS011;6244;51.460;7.090;2023-10-09T17:55:00;13.13;;;6.45;;
12359;SDS011;6244;51.460;7.090;2023-10-09T18:00:02;6.63;;;4.75;;
12359;SDS011;6244;51.460;7.090;2023-10-09T18:04:59;11.95;;;6.75;;
12359;SDS011;6244;51.460;7.090;2023-10-09T18:09:56;9.68;;;6.45;;
12359;SDS011;6244;51.460;7.090;2023-10-09T18:14:53;11.07;;;6.40;;
12359;SDS011;6244;51.460;7.090;2023-10-09T18:19:55;11.55;;;6.18;;
12359;SDS011;6244;51.460;7.090;2023-10-09T18:24:55;10.05;;;5.72;;
12359;SDS011;6244;51.460;7.090;2023-10-09T18:29:53;11.15;;;6.43;;
12359;SDS011;6244;51.460;7.090;2023-10-09T18:35:00;10.23;;;6.07;;
12359;SDS011;6244;51.460;7.090;2023-10-09T18:39:57;13.27;;;6.53;;
12359;SDS011;6244;51.460;7.090;2023-10-09T18:44:54;11.68;;;6.65;;
12359;SDS011;6244;51.460;7.090;2023-10-09T18:49:51;10.57;;;6.43;;
12359;SDS011;6244;51.460;7.090;2023-10-09T18:54:50;9.90;;;5.47;;
12359;SDS011;6244;51.460;7.090;2023-10-09T18:59:46;10.90;;;6.18;;
12359;SDS011;6244;51.460;7.090;2023-10-09T19:04:46;9.07;;;6.13;;
12359;SDS011;6244;51.460;7.090;2023-10-09T19:09:43;11.40;;;5.90;;
12359;SDS011;6244;51.460;7.090;2023-10-09T19:14:41;12.82;;;6.53;;
12359;SDS011;6244;51.460;7.090;2023-10-09T19:19:37;12.70;;;7.05;;
12359;SDS011;6244;51.460;7.090;2023-10-09T19:24:34;9.60;;;6.55;;
12359;SDS011;6244;51.460;7.090;2023-10-09T19:29:32;12.18;;;7.55;;
12359;SDS011;6244;51.460;7.090;2023-10-09T19:34:30;11.60;;;6.15;;
12359;SDS011;6244;51.460;7.090;2023-10-09T19:39:29;9.23;;;5.93;;
12359;SDS011;6244;51.460;7.090;2023-10-09T19:44:26;13.40;;;6.40;;
12359;SDS011;6244;51.460;7.090;2023-10-09T19:49:25;12.10;;;6.45;;
12359;SDS011;6244;51.460;7.090;2023-10-09T19:54:25;10.18;;;6.47;;
12359;SDS011;6244;51.460;7.090;2023-10-09T19:59:23;10.25;;;6.95;;
12359;SDS011;6244;51.460;7.090;2023-10-09T20:04:20;12.18;;;6.75;;
12359;SDS011;6244;51.460;7.090;2023-10-09T20:09:20;11.45;;;6.03;;
12359;SDS011;6244;51.460;7.090;2023-10-09T20:14:21;10.82;;;6.32;;
12359;SDS011;6244;51.460;7.090;2023-10-09T20:19:20;9.32;;;5.97;;
12359;SDS011;6244;51.460;7.090;2023-10-09T20:24:19;12.20;;;6.75;;
12359;SDS011;6244;51.460;7.090;2023-10-09T20:29:19;11.40;;;6.68;;
12359;SDS011;6244;51.460;7.090;2023-10-09T20:34:17;12.05;;;7.10;;
12359;SDS011;6244;51.460;7.090;2023-10-09T20:39:15;10.73;;;6.40;;
12359;SDS011;6244;51.460;7.090;2023-10-09T20:44:12;10.60;;;6.07;;
12359;SDS011;6244;51.460;7.090;2023-10-09T20:49:09;12.07;;;6.55;;
12359;SDS011;6244;51.460;7.090;2023-10-09T20:54:10;9.45;;;6.70;;
12359;SDS011;6244;51.460;7.090;2023-10-09T20:59:07;14.73;;;7.38;;
12359;SDS011;6244;51.460;7.090;2023-10-09T21:04:03;10.50;;;6.82;;
12359;SDS011;6244;51.460;7.090;2023-10-09T21:09:01;10.70;;;6.25;;
12359;SDS011;6244;51.460;7.090;2023-10-09T21:14:02;10.80;;;6.85;;
12359;SDS011;6244;51.460;7.090;2023-10-09T21:18:59;10.60;;;6.30;;
12359;SDS011;6244;51.460;7.090;2023-10-09T21:23:56;12.40;;;6.63;;
12359;SDS011;6244;51.460;7.090;2023-10-09T21:28:52;12.60;;;6.90;;
12359;SDS011;6244;51.460;7.090;2023-10-09T21:33:51;14.48;;;7.50;;
12359;SDS011;6244;51.460;7.090;2023-10-09T21:38:47;11.85;;;6.93;;
12359;SDS011;6244;51.460;7.090;2023-10-09T21:43:44;12.55;;;7.65;;
12359;SDS011;6244;51.460;7.090;2023-10-09T21:48:41;13.48;;;7.47;;
12359;SDS011;6244;51.460;7.090;2023-10-09T21:53:39;10.35;;;6.78;;
12359;SDS011;6244;51.460;7.090;2023-10-09T21:58:35;12.35;;;6.80;;
12359;SDS011;6244;51.460;7.090;2023-10-09T22:03:32;11.85;;;6.88;;
12359;SDS011;6244;51.460;7.090;2023-10-09T22:08:30;12.73;;;8.23;;
12359;SDS011;6244;51.460;7.090;2023-10-09T22:13:29;10.65;;;6.97;;
12359;SDS011;6244;51.460;7.090;2023-10-09T22:18:26;14.48;;;7.90;;
12359;SDS011;6244;51.460;7.090;2023-10-09T22:23:23;13.48;;;7.63;;
12359;SDS011;6244;51.460;7.090;2023-10-09T22:28:26;11.93;;;7.47;;
12359;SDS011;6244;51.460;7.090;2023-10-09T22:33:24;13.52;;;7.50;;
12359;SDS011;6244;51.460;7.090;2023-10-09T22:38:21;12.98;;;7.68;;
12359;SDS011;6244;51.460;7.090;2023-10-09T22:43:17;14.45;;;7.40;;
12359;SDS011;6244;51.460;7.090;2023-10-09T22:48:18;15.57;;;8.02;;
12359;SDS011;6244;51.460;7.090;2023-10-09T22:53:22;16.65;;;8.02;;
12359;SDS011;6244;51.460;7.090;2023-10-09T22:58:28;17.15;;;8.05;;
12359;SDS011;6244;51.460;7.090;2023-10-09T23:03:31;16.05;;;7.97;;
12359;SDS011;6244;51.460;7.090;2023-10-09T23:08:36;13.48;;;7.40;;
12359;SDS011;6244;51.460;7.090;2023-10-09T23:13:35;13.13;;;7.88;;
12359;SDS011;6244;51.460;7.090;2023-10-09T23:18:34;14.75;;;7.60;;
12359;SDS011;6244;51.460;7.090;2023-10-09T23:23:39;16.00;;;8.00;;
12359;SDS011;6244;51.460;7.090;2023-10-09T23:28:37;14.50;;;7.35;;
12359;SDS011;6244;51.460;7.090;2023-10-09T23:33:34;13.38;;;7.45;;
12359;SDS011;6244;51.460;7.090;2023-10-09T23:38:30;12.07;;;6.95;;
12359;SDS011;6244;51.460;7.090;2023-10-09T23:43:30;14.20;;;8.02;;
12359;SDS011;6244;51.460;7.090;2023-10-09T23:48:28;13.75;;;7.13;;
12359;SDS011;6244;51.460;7.090;2023-10-09T23:53:28;13.80;;;7.82;;
12359;SDS011;6244;51.460;7.090;2023-10-09T23:58:28;11.73;;;6.32;;
